UAL728 MROC-TJSJ
Flight info
| Callsign | UAL728 |
|---|---|
| Flight time | N/A |
| Altitude | 37000 |
| Route | TEJA3M LIO UM796 PADUR MORLI ROKIN SELAN UM525 MELLA JOSHE JOSHE3 |
| Aircraft | A20N/M-SDE2E3FGHIRWXY/LB1 |
Departure
| Time | 2026-04-27 02:10 |
|---|---|
| Airport | Juan Santamaría International Airport (MROC) |
Arrival
| Time | N/A |
|---|---|
| Airport | Luis Munoz Marin International Airport (TJSJ) |
| Time | Latitude | Longitude | Altitude | Speed | Heading |
|---|---|---|---|---|---|
| 2026-04-27 01:52 | 9.99776 | -84.20272 | 3029 ft | 0 kts | 346° |
| 2026-04-27 02:01 | 9.99760 | -84.20268 | 3074 ft | 5 kts | 346° |
| 2026-04-27 02:01 | 9.99725 | -84.20257 | 3024 ft | 5 kts | 305° |
| 2026-04-27 02:01 | 9.99721 | -84.20249 | 3025 ft | 0 kts | 257° |
| 2026-04-27 02:05 | 9.99720 | -84.20253 | 3020 ft | 3 kts | 257° |
| 2026-04-27 02:05 | 9.99702 | -84.20311 | 3028 ft | 14 kts | 249° |
| 2026-04-27 02:05 | 9.99656 | -84.20432 | 3026 ft | 22 kts | 249° |
| 2026-04-27 02:05 | 9.99593 | -84.20605 | 3019 ft | 29 kts | 250° |
| 2026-04-27 02:06 | 9.99520 | -84.20801 | 3012 ft | 30 kts | 249° |
| 2026-04-27 02:06 | 9.99449 | -84.20999 | 2999 ft | 30 kts | 248° |
| 2026-04-27 02:06 | 9.99369 | -84.21202 | 2990 ft | 31 kts | 249° |
| 2026-04-27 02:06 | 9.99291 | -84.21412 | 2981 ft | 33 kts | 250° |
| 2026-04-27 02:07 | 9.99207 | -84.21639 | 2973 ft | 35 kts | 249° |
| 2026-04-27 02:07 | 9.99119 | -84.21874 | 2964 ft | 30 kts | 249° |
| 2026-04-27 02:07 | 9.99105 | -84.22074 | 2947 ft | 29 kts | 255° |
| 2026-04-27 02:07 | 9.99026 | -84.22200 | 2947 ft | 14 kts | 183° |
| 2026-04-27 02:08 | 9.99018 | -84.22198 | 2945 ft | 0 kts | 169° |
| 2026-04-27 02:08 | 9.99003 | -84.22195 | 2943 ft | 10 kts | 169° |
| 2026-04-27 02:09 | 9.98921 | -84.22140 | 2945 ft | 15 kts | 94° |
| 2026-04-27 02:09 | 9.98950 | -84.22058 | 2948 ft | 0 kts | 68° |
| 2026-04-27 02:09 | 9.99011 | -84.21895 | 2954 ft | 63 kts | 69° |
| 2026-04-27 02:09 | 9.99253 | -84.21248 | 2986 ft | 131 kts | 70° |
| 2026-04-27 02:10 | 9.99646 | -84.20206 | 3086 ft | 180 kts | 69° |
| 2026-04-27 02:10 | 10.00095 | -84.19004 | 3844 ft | 186 kts | 69° |
| 2026-04-27 02:10 | 10.00564 | -84.17738 | 4600 ft | 197 kts | 69° |
| 2026-04-27 02:10 | 10.01051 | -84.16406 | 5312 ft | 209 kts | 69° |
| 2026-04-27 02:11 | 10.01584 | -84.14967 | 5859 ft | 224 kts | 69° |
| 2026-04-27 02:11 | 10.02032 | -84.13412 | 6343 ft | 233 kts | 81° |
| 2026-04-27 02:11 | 10.02075 | -84.11743 | 6932 ft | 242 kts | 96° |
| 2026-04-27 02:11 | 10.01598 | -84.10105 | 7538 ft | 250 kts | 119° |
| 2026-04-27 02:12 | 10.00452 | -84.08767 | 8150 ft | 258 kts | 145° |
| 2026-04-27 02:12 | 9.98894 | -84.07817 | 8740 ft | 266 kts | 148° |
| 2026-04-27 02:12 | 9.97284 | -84.06791 | 9250 ft | 279 kts | 147° |
| 2026-04-27 02:12 | 9.95649 | -84.05693 | 9945 ft | 284 kts | 145° |
| 2026-04-27 02:13 | 9.94013 | -84.04550 | 10598 ft | 288 kts | 145° |
| 2026-04-27 02:13 | 9.92341 | -84.03376 | 11195 ft | 295 kts | 145° |
| 2026-04-27 02:13 | 9.90670 | -84.02132 | 11779 ft | 301 kts | 141° |
| 2026-04-27 02:13 | 9.89007 | -84.00792 | 12381 ft | 308 kts | 141° |
| 2026-04-27 02:14 | 9.87309 | -83.99436 | 13001 ft | 313 kts | 141° |
| 2026-04-27 02:14 | 9.85582 | -83.98061 | 13639 ft | 318 kts | 141° |
| 2026-04-27 02:14 | 9.83939 | -83.96544 | 14211 ft | 321 kts | 128° |
| 2026-04-27 02:14 | 9.82813 | -83.94626 | 14774 ft | 322 kts | 109° |
| 2026-04-27 02:15 | 9.82359 | -83.92410 | 15350 ft | 323 kts | 90° |
| 2026-04-27 02:15 | 9.82493 | -83.90131 | 15940 ft | 325 kts | 84° |
| 2026-04-27 02:15 | 9.82681 | -83.87842 | 16543 ft | 327 kts | 84° |
| 2026-04-27 02:15 | 9.82866 | -83.85540 | 17158 ft | 328 kts | 84° |
| 2026-04-27 02:16 | 9.83050 | -83.83230 | 17713 ft | 332 kts | 84° |
| 2026-04-27 02:16 | 9.83236 | -83.80853 | 17920 ft | 347 kts | 85° |
| 2026-04-27 02:16 | 9.83432 | -83.78350 | 17964 ft | 365 kts | 85° |
| 2026-04-27 02:16 | 9.83633 | -83.75711 | 17967 ft | 384 kts | 85° |
| 2026-04-27 02:17 | 9.83826 | -83.72963 | 18151 ft | 396 kts | 85° |
| 2026-04-27 02:17 | 9.84017 | -83.70164 | 18578 ft | 400 kts | 85° |
| 2026-04-27 02:17 | 9.84208 | -83.67343 | 19015 ft | 402 kts | 85° |
| 2026-04-27 02:17 | 9.84402 | -83.64510 | 19467 ft | 404 kts | 85° |
| 2026-04-27 02:18 | 9.84600 | -83.61659 | 19923 ft | 406 kts | 84° |
| 2026-04-27 02:18 | 9.85010 | -83.58824 | 20385 ft | 407 kts | 77° |
| 2026-04-27 02:18 | 9.85593 | -83.56003 | 20854 ft | 409 kts | 78° |
| 2026-04-27 02:18 | 9.86169 | -83.53176 | 21329 ft | 410 kts | 78° |
| 2026-04-27 02:19 | 9.86742 | -83.50341 | 21816 ft | 411 kts | 78° |
| 2026-04-27 02:19 | 9.87308 | -83.47533 | 22298 ft | 412 kts | 78° |
| 2026-04-27 02:19 | 9.87883 | -83.44683 | 22798 ft | 413 kts | 78° |
| 2026-04-27 02:19 | 9.88458 | -83.41828 | 23306 ft | 413 kts | 78° |
| 2026-04-27 02:20 | 9.89033 | -83.38974 | 23780 ft | 413 kts | 78° |
| 2026-04-27 02:20 | 9.89616 | -83.36083 | 24211 ft | 413 kts | 78° |
| 2026-04-27 02:20 | 9.90184 | -83.33263 | 24642 ft | 413 kts | 78° |
| 2026-04-27 02:20 | 9.90758 | -83.30416 | 25089 ft | 412 kts | 78° |
| 2026-04-27 02:21 | 9.91331 | -83.27567 | 25535 ft | 411 kts | 78° |
| 2026-04-27 02:21 | 9.91902 | -83.24727 | 25997 ft | 410 kts | 78° |
| 2026-04-27 02:21 | 9.92470 | -83.21901 | 26461 ft | 408 kts | 78° |
| 2026-04-27 02:21 | 9.93036 | -83.19090 | 26933 ft | 406 kts | 78° |
| 2026-04-27 02:22 | 9.93599 | -83.16286 | 27413 ft | 404 kts | 79° |
| 2026-04-27 02:22 | 9.94159 | -83.13497 | 27904 ft | 401 kts | 79° |
| 2026-04-27 02:22 | 9.94714 | -83.10733 | 28406 ft | 397 kts | 79° |
| 2026-04-27 02:22 | 9.95263 | -83.07996 | 28912 ft | 393 kts | 79° |
| 2026-04-27 02:23 | 9.95806 | -83.05291 | 29424 ft | 389 kts | 79° |
| 2026-04-27 02:23 | 9.96270 | -83.02632 | 29856 ft | 387 kts | 84° |
| 2026-04-27 02:23 | 9.96441 | -82.99923 | 30205 ft | 384 kts | 89° |
| 2026-04-27 02:23 | 9.96533 | -82.97222 | 30539 ft | 382 kts | 89° |